Accueil
METAR-TAF:

METAR-TAF

Aéroports :

Boscombe Down, Angleterre

latitude: 51-10N, longitude: 001-45W, altitude: 124 m

Observation

Le bulletin a été fait il y a 1 heure et 7 minutes, à 18:50 UTC
Vent 10 kt de est
Température 4°C
Humidité 87%
Pression 1006 hPa
Visibilité 10 km ou plus

METAR: EGDM 201850Z AUTO 10010KT 9999 FEW026/// BKN230/// 04/02 Q1006

Heure: 19:57 (19:57 UTC)

Prévision

Le bulletin a été fait il y a 6 heures et 11 minutes, à 13:46 UTC
Prévision valable du 20 à 15 UTC au 20 à 19 UTC
Vent 18 kt de est/sud-est
Visibilité 10 km ou plus
Nuages fragmentés à une hauteur de 2800 ft

TAF: EGDM 201346Z 2015/2019 12018KT 9999 BKN028

Observations et prévisions météorologiques de plus de 4000 aéroports (messages METAR et TAF).

Les stations disponibles sont représentées par des disques jaunes et rouges sur la carte.

Passer la souris dessus pour voir le nom de la station.

Cliquer dessus pour voir les observations et prévisions météorologiques.

Pour changer de carte: cliquez sur les boutons verts avec une croix noire pour zoomer, sur le bouton vert avec un tiret pour effectuer un zoom arrière, ou sur les flèches vertes pour les cartes adjacentes.


METAR-TAF: